Time,TemperatureF,DewpointF,PressureIn,WindDirection,WindDirectionDegrees,WindSpeedMPH,WindSpeedGustMPH,Humidity,HourlyPrecipIn,Conditions,Clouds,dailyrainin,SoftwareType,DateUTC
2013-10-15 00:00:00,62.2,35.4,30.00,NW,315,4.1,4.3,36,0.00,,,0.00,tws,2013-10-15 07:00:00,
2013-10-15 00:10:00,61.9,35.2,29.99,NW,315,3.8,4.5,36,0.00,,,0.00,tws,2013-10-15 07:10:00,
2013-10-15 00:20:00,61.8,35.6,29.99,NW,315,3.1,4.1,37,0.00,,,0.00,tws,2013-10-15 07:20:00,
2013-10-15 00:30:00,61.5,35.1,29.99,NW,315,4.7,5.9,36,0.00,,,0.00,tws,2013-10-15 07:30:00,
2013-10-15 00:40:00,61.2,34.5,29.99,NW,315,4.8,5.8,36,0.00,,,0.00,tws,2013-10-15 07:40:00,
2013-10-15 00:50:00,60.8,33.8,29.99,West,270,5.2,6.0,35,0.00,,,0.00,tws,2013-10-15 07:50:00,
2013-10-15 01:00:00,60.9,33.5,29.98,NW,315,4.6,5.3,35,0.00,,,0.00,tws,2013-10-15 08:00:00,
2013-10-15 01:10:00,61.3,33.6,29.99,WNW,292,4.2,4.6,35,0.00,,,0.00,tws,2013-10-15 08:10:00,
2013-10-15 01:20:00,61.6,33.5,29.98,NW,315,4.0,4.4,34,0.00,,,0.00,tws,2013-10-15 08:20:00,
2013-10-15 01:30:00,61.8,34.0,29.98,NW,315,3.8,4.8,34,0.00,,,0.00,tws,2013-10-15 08:30:00,
2013-10-15 01:40:00,61.8,34.3,29.98,NW,315,4.8,6.0,35,0.00,,,0.00,tws,2013-10-15 08:40:00,
2013-10-15 01:50:00,61.4,33.6,29.99,NW,315,4.8,5.8,34,0.00,,,0.00,tws,2013-10-15 08:50:00,
2013-10-15 02:00:00,61.1,33.7,29.98,NW,315,4.5,5.2,35,0.00,,,0.00,tws,2013-10-15 09:00:00,
2013-10-15 02:10:00,61.0,34.2,29.98,NW,315,3.6,4.2,36,0.00,,,0.00,tws,2013-10-15 09:10:00,
2013-10-15 02:20:00,61.0,34.6,29.98,NW,315,3.2,3.8,36,0.00,,,0.00,tws,2013-10-15 09:20:00,
2013-10-15 02:30:00,60.9,34.6,29.97,NW,315,3.2,4.1,36,0.00,,,0.00,tws,2013-10-15 09:30:00,
2013-10-15 02:40:00,60.8,34.2,29.97,NW,315,3.0,4.6,36,0.00,,,0.00,tws,2013-10-15 09:40:00,
2013-10-15 02:50:00,60.5,33.7,29.97,NW,315,1.2,2.8,36,0.00,,,0.00,tws,2013-10-15 09:50:00,
2013-10-15 03:00:00,60.2,33.5,29.96,NE,45,1.3,2.8,36,0.00,,,0.00,tws,2013-10-15 10:00:00,
2013-10-15 03:10:00,60.1,34.2,29.96,North,0,0.0,0.0,37,0.00,,,0.00,tws,2013-10-15 10:10:00,
2013-10-15 03:20:00,59.7,34.4,29.96,North,0,0.6,2.0,38,0.00,,,0.00,tws,2013-10-15 10:20:00,
2013-10-15 03:30:00,59.1,34.0,29.96,NNW,337,1.2,3.5,38,0.00,,,0.00,tws,2013-10-15 10:30:00,
2013-10-15 03:40:00,58.7,34.1,29.96,NNW,337,3.8,4.9,39,0.00,,,0.00,tws,2013-10-15 10:40:00,
2013-10-15 03:50:00,58.4,33.6,29.96,NNW,337,2.5,4.0,38,0.00,,,0.00,tws,2013-10-15 10:50:00,
2013-10-15 04:00:00,58.3,33.7,29.96,NNW,337,0.1,0.7,39,0.00,,,0.00,tws,2013-10-15 11:00:00,
2013-10-15 04:10:00,58.0,33.9,29.95,NNW,337,1.3,2.9,39,0.00,,,0.00,tws,2013-10-15 11:10:00,
2013-10-15 04:20:00,57.6,33.2,29.95,NW,315,0.0,0.0,39,0.00,,,0.00,tws,2013-10-15 11:20:00,
2013-10-15 04:30:00,57.1,33.3,29.95,ENE,67,0.6,2.1,40,0.00,,,0.00,tws,2013-10-15 11:30:00,
2013-10-15 04:40:00,56.8,33.3,29.95,NE,45,0.0,0.0,40,0.00,,,0.00,tws,2013-10-15 11:40:00,
2013-10-15 04:50:00,56.6,33.8,29.95,NNW,337,0.0,0.0,41,0.00,,,0.00,tws,2013-10-15 11:50:00,
2013-10-15 05:00:00,56.3,33.6,29.96,North,0,0.4,2.4,42,0.00,,,0.00,tws,2013-10-15 12:00:00,
2013-10-15 05:10:00,56.0,33.3,29.96,North,0,0.8,2.6,41,0.00,,,0.00,tws,2013-10-15 12:10:00,
2013-10-15 05:20:00,55.8,33.7,29.96,NW,315,0.9,2.7,42,0.00,,,0.00,tws,2013-10-15 12:20:00,
2013-10-15 05:30:00,55.7,33.8,29.96,NW,315,1.7,2.5,43,0.00,,,0.00,tws,2013-10-15 12:30:00,
2013-10-15 05:40:00,55.5,33.6,29.96,NW,315,0.3,1.6,43,0.00,,,0.00,tws,2013-10-15 12:40:00,
2013-10-15 05:50:00,55.2,33.9,29.96,SW,225,0.0,0.0,44,0.00,,,0.00,tws,2013-10-15 12:50:00,
2013-10-15 06:00:00,55.0,34.2,29.97,WNW,292,0.0,0.0,45,0.00,,,0.00,tws,2013-10-15 13:00:00,
2013-10-15 06:10:00,54.8,34.2,29.97,NW,315,0.0,0.0,45,0.00,,,0.00,tws,2013-10-15 13:10:00,
2013-10-15 06:20:00,54.8,34.7,29.96,NW,315,0.0,0.0,46,0.00,,,0.00,tws,2013-10-15 13:20:00,
2013-10-15 06:30:00,54.7,34.7,29.96,NW,315,0.0,0.0,46,0.00,,,0.00,tws,2013-10-15 13:30:00,
2013-10-15 06:40:00,54.6,34.7,29.96,West,270,0.7,2.7,46,0.00,,,0.00,tws,2013-10-15 13:40:00,
2013-10-15 06:50:00,54.5,34.6,29.96,WNW,292,1.0,2.4,46,0.00,,,0.00,tws,2013-10-15 13:50:00,
2013-10-15 07:00:00,54.5,35.2,29.97,NW,315,0.2,0.8,47,0.00,,,0.00,tws,2013-10-15 14:00:00,
2013-10-15 07:10:00,54.5,36.0,29.97,NNW,337,0.1,0.5,49,0.00,,,0.00,tws,2013-10-15 14:10:00,
2013-10-15 07:20:00,54.6,36.6,29.97,NW,315,1.5,3.2,50,0.00,,,0.00,tws,2013-10-15 14:20:00,
2013-10-15 07:30:00,54.9,37.0,29.97,NW,315,2.3,3.7,50,0.00,,,0.00,tws,2013-10-15 14:30:00,
2013-10-15 07:40:00,55.6,37.4,29.98,NW,315,1.0,3.5,50,0.00,,,0.00,tws,2013-10-15 14:40:00,
2013-10-15 07:50:00,56.7,38.4,29.98,ENE,67,0.0,0.0,50,0.00,,,0.00,tws,2013-10-15 14:50:00,
2013-10-15 08:00:00,58.5,39.9,29.98,East,90,0.0,0.0,49,0.00,,,0.00,tws,2013-10-15 15:00:00,
2013-10-15 08:10:00,59.8,39.9,29.98,NE,45,0.5,1.5,47,0.00,,,0.00,tws,2013-10-15 15:10:00,
2013-10-15 08:20:00,60.6,39.6,29.98,ENE,67,0.3,1.4,45,0.00,,,0.00,tws,2013-10-15 15:20:00,
2013-10-15 08:30:00,61.6,39.7,29.99,SE,135,0.0,0.0,44,0.00,,,0.00,tws,2013-10-15 15:30:00,
2013-10-15 08:40:00,62.5,39.2,30.00,South,180,0.1,0.9,41,0.00,,,0.00,tws,2013-10-15 15:40:00,
2013-10-15 08:50:00,64.3,39.8,29.98,SE,135,0.1,0.5,40,0.00,,,0.00,tws,2013-10-15 15:50:00,
2013-10-15 09:00:00,65.8,40.4,29.99,NE,45,0.2,0.9,38,0.00,,,0.00,tws,2013-10-15 16:00:00,
2013-10-15 09:10:00,67.3,41.3,29.99,East,90,0.4,1.2,38,0.00,,,0.00,tws,2013-10-15 16:10:00,
2013-10-15 09:20:00,69.4,41.6,30.00,East,90,1.4,2.8,35,0.00,,,0.00,tws,2013-10-15 16:20:00,
2013-10-15 09:30:00,71.7,42.1,29.98,SW,225,1.7,2.9,34,0.00,,,0.00,tws,2013-10-15 16:30:00,
2013-10-15 09:40:00,73.5,42.0,29.98,East,90,2.1,3.4,31,0.00,,,0.00,tws,2013-10-15 16:40:00,
2013-10-15 09:50:00,74.2,42.2,29.99,SE,135,2.0,3.2,31,0.00,,,0.00,tws,2013-10-15 16:50:00,
2013-10-15 10:00:00,74.4,42.1,29.98,East,90,1.8,3.2,30,0.00,,,0.00,tws,2013-10-15 17:00:00,
2013-10-15 10:10:00,74.3,41.7,29.98,East,90,2.2,3.4,30,0.00,,,0.00,tws,2013-10-15 17:10:00,
2013-10-15 10:20:00,74.2,41.1,29.99,NE,45,2.4,3.7,29,0.00,,,0.00,tws,2013-10-15 17:20:00,
2013-10-15 10:30:00,74.4,41.3,29.98,WSW,247,2.3,3.7,29,0.00,,,0.00,tws,2013-10-15 17:30:00,
2013-10-15 10:40:00,74.3,40.6,29.98,SE,135,2.2,3.7,29,0.00,,,0.00,tws,2013-10-15 17:40:00,
2013-10-15 10:50:00,74.1,40.4,29.98,East,90,2.9,4.8,29,0.00,,,0.00,tws,2013-10-15 17:50:00,
2013-10-15 11:00:00,74.3,41.6,29.97,ESE,112,2.7,3.8,30,0.00,,,0.00,tws,2013-10-15 18:00:00,
2013-10-15 11:10:00,74.9,42.0,29.97,SE,135,2.2,3.7,30,0.00,,,0.00,tws,2013-10-15 18:10:00,
2013-10-15 11:20:00,75.2,42.0,29.96,SE,135,3.7,5.6,29,0.00,,,0.00,tws,2013-10-15 18:20:00,
2013-10-15 11:30:00,75.7,42.0,29.97,South,180,3.9,7.1,29,0.00,,,0.00,tws,2013-10-15 18:30:00,
2013-10-15 11:40:00,75.9,41.9,29.96,South,180,4.2,7.2,29,0.00,,,0.00,tws,2013-10-15 18:40:00,
2013-10-15 11:50:00,76.3,42.5,29.96,SW,225,3.3,4.9,29,0.00,,,0.00,tws,2013-10-15 18:50:00,
2013-10-15 12:00:00,77.0,42.6,29.95,SSE,157,4.6,8.0,28,0.00,,,0.00,tws,2013-10-15 19:00:00,
2013-10-15 12:10:00,77.2,43.1,29.95,West,270,4.2,6.8,29,0.00,,,0.00,tws,2013-10-15 19:10:00,
2013-10-15 12:20:00,77.6,43.4,29.95,SE,135,4.0,6.3,29,0.00,,,0.00,tws,2013-10-15 19:20:00,
2013-10-15 12:30:00,78.0,43.5,29.94,SE,135,4.6,7.2,28,0.00,,,0.00,tws,2013-10-15 19:30:00,
2013-10-15 12:40:00,78.5,43.7,29.94,ENE,67,3.5,5.2,28,0.00,,,0.00,tws,2013-10-15 19:40:00,
2013-10-15 12:50:00,78.8,43.5,29.94,SW,225,3.9,5.3,28,0.00,,,0.00,tws,2013-10-15 19:50:00,
2013-10-15 13:00:00,78.9,42.8,29.93,SW,225,4.0,8.2,27,0.00,,,0.00,tws,2013-10-15 20:00:00,
2013-10-15 13:10:00,78.9,43.3,29.92,SE,135,4.3,6.7,27,0.00,,,0.00,tws,2013-10-15 20:10:00,
2013-10-15 13:20:00,79.1,42.7,29.92,SE,135,4.1,5.8,26,0.00,,,0.00,tws,2013-10-15 20:20:00,
2013-10-15 13:30:00,79.1,41.6,29.92,ESE,112,4.6,5.9,25,0.00,,,0.00,tws,2013-10-15 20:30:00,
2013-10-15 13:40:00,79.3,42.0,29.91,South,180,3.9,7.7,26,0.00,,,0.00,tws,2013-10-15 20:40:00,
2013-10-15 13:50:00,79.7,41.2,29.92,SW,225,6.6,10.5,25,0.00,,,0.00,tws,2013-10-15 20:50:00,
2013-10-15 14:00:00,79.9,40.0,29.91,South,180,7.0,9.7,23,0.00,,,0.00,tws,2013-10-15 21:00:00,
2013-10-15 14:10:00,79.9,40.0,29.92,SSW,202,4.6,8.6,23,0.00,,,0.00,tws,2013-10-15 21:10:00,
2013-10-15 14:20:00,80.1,39.5,29.91,SSE,157,7.1,9.6,23,0.00,,,0.00,tws,2013-10-15 21:20:00,
2013-10-15 14:30:00,80.0,38.5,29.91,SW,225,6.6,8.0,22,0.00,,,0.00,tws,2013-10-15 21:30:00,
2013-10-15 14:40:00,79.8,37.9,29.91,SE,135,6.1,8.3,21,0.00,,,0.00,tws,2013-10-15 21:40:00,
2013-10-15 14:50:00,79.7,38.2,29.91,SE,135,4.4,6.3,22,0.00,,,0.00,tws,2013-10-15 21:50:00,
2013-10-15 15:00:00,80.0,37.9,29.90,South,180,4.7,8.5,21,0.00,,,0.00,tws,2013-10-15 22:00:00,
2013-10-15 15:10:00,80.2,37.6,29.90,South,180,5.8,8.6,21,0.00,,,0.00,tws,2013-10-15 22:10:00,
2013-10-15 15:20:00,80.3,38.7,29.90,ENE,67,4.0,6.4,22,0.00,,,0.00,tws,2013-10-15 22:20:00,
2013-10-15 15:30:00,80.8,38.6,29.90,SE,135,5.0,7.6,21,0.00,,,0.00,tws,2013-10-15 22:30:00,
2013-10-15 15:40:00,80.9,38.1,29.91,SSW,202,3.2,5.3,21,0.00,,,0.00,tws,2013-10-15 22:40:00,
2013-10-15 15:50:00,80.9,37.7,29.91,SW,225,5.2,7.7,20,0.00,,,0.00,tws,2013-10-15 22:50:00,
2013-10-15 16:00:00,80.9,36.8,29.90,SW,225,3.8,6.3,20,0.00,,,0.00,tws,2013-10-15 23:00:00,
2013-10-15 16:10:00,80.5,35.9,29.90,South,180,6.1,9.9,19,0.00,,,0.00,tws,2013-10-15 23:10:00,
2013-10-15 16:20:00,79.8,35.8,29.91,WSW,247,5.5,9.4,20,0.00,,,0.00,tws,2013-10-15 23:20:00,
2013-10-15 16:30:00,79.3,35.7,29.90,SW,225,6.6,8.7,20,0.00,,,0.00,tws,2013-10-15 23:30:00,
2013-10-15 16:40:00,78.9,35.2,29.90,SW,225,5.6,7.9,20,0.00,,,0.00,tws,2013-10-15 23:40:00,
2013-10-15 16:50:00,78.2,34.6,29.91,SW,225,6.2,9.1,20,0.00,,,0.00,tws,2013-10-15 23:50:00,
2013-10-15 17:00:00,77.7,34.8,29.91,SW,225,5.4,6.9,20,0.00,,,0.00,tws,2013-10-16 00:00:00,
2013-10-15 17:10:00,77.2,34.3,29.91,SW,225,5.6,8.7,20,0.00,,,0.00,tws,2013-10-16 00:10:00,
2013-10-15 17:20:00,76.7,34.4,29.91,SW,225,3.6,4.8,21,0.00,,,0.00,tws,2013-10-16 00:20:00,
2013-10-15 17:30:00,76.3,34.1,29.92,SW,225,2.2,4.0,21,0.00,,,0.00,tws,2013-10-16 00:30:00,
2013-10-15 17:40:00,75.9,34.7,29.91,SW,225,3.1,3.9,21,0.00,,,0.00,tws,2013-10-16 00:40:00,
2013-10-15 17:50:00,75.5,34.4,29.92,WSW,247,2.9,4.0,22,0.00,,,0.00,tws,2013-10-16 00:50:00,
2013-10-15 18:00:00,75.0,33.9,29.91,SW,225,2.8,3.6,21,0.00,,,0.00,tws,2013-10-16 01:00:00,
2013-10-15 18:10:00,74.5,34.0,29.92,South,180,2.9,3.4,22,0.00,,,0.00,tws,2013-10-16 01:10:00,
2013-10-15 18:20:00,74.0,33.9,29.92,South,180,2.9,3.6,22,0.00,,,0.00,tws,2013-10-16 01:20:00,
2013-10-15 18:30:00,73.3,33.5,29.91,SW,225,2.3,3.1,22,0.00,,,0.00,tws,2013-10-16 01:30:00,
2013-10-15 18:40:00,72.7,33.7,29.93,SW,225,3.0,3.5,23,0.00,,,0.00,tws,2013-10-16 01:40:00,
2013-10-15 18:50:00,71.9,33.4,29.94,SW,225,3.4,4.2,23,0.00,,,0.00,tws,2013-10-16 01:50:00,
2013-10-15 19:00:00,71.2,32.9,29.94,South,180,3.9,4.9,23,0.00,,,0.00,tws,2013-10-16 02:00:00,
2013-10-15 19:10:00,70.7,32.5,29.95,SW,225,4.4,5.0,24,0.00,,,0.00,tws,2013-10-16 02:10:00,
2013-10-15 19:20:00,70.4,32.1,29.94,SSW,202,4.3,5.7,23,0.00,,,0.00,tws,2013-10-16 02:20:00,
2013-10-15 19:30:00,70.1,31.9,29.95,SW,225,4.6,5.6,24,0.00,,,0.00,tws,2013-10-16 02:30:00,
2013-10-15 19:40:00,69.7,32.7,29.95,NW,315,2.2,3.6,25,0.00,,,0.00,tws,2013-10-16 02:40:00,
2013-10-15 19:50:00,69.3,33.6,29.96,NW,315,1.8,2.4,26,0.00,,,0.00,tws,2013-10-16 02:50:00,
2013-10-15 20:00:00,68.6,33.4,29.96,NW,315,1.3,2.6,26,0.00,,,0.00,tws,2013-10-16 03:00:00,
2013-10-15 20:10:00,67.7,33.3,29.96,WNW,292,1.0,1.9,27,0.00,,,0.00,tws,2013-10-16 03:10:00,
2013-10-15 20:20:00,67.0,33.9,29.97,NW,315,2.2,3.0,28,0.00,,,0.00,tws,2013-10-16 03:20:00,
2013-10-15 20:30:00,66.5,34.2,29.97,NW,315,2.5,3.8,29,0.00,,,0.00,tws,2013-10-16 03:30:00,
2013-10-15 20:40:00,66.0,33.5,29.98,WNW,292,2.0,3.6,29,0.00,,,0.00,tws,2013-10-16 03:40:00,
2013-10-15 20:50:00,65.7,33.5,29.98,NW,315,2.9,4.1,29,0.00,,,0.00,tws,2013-10-16 03:50:00,
2013-10-15 21:00:00,65.4,33.0,29.98,West,270,2.5,4.1,29,0.00,,,0.00,tws,2013-10-16 04:00:00,
2013-10-15 21:10:00,65.1,32.5,29.98,NW,315,2.9,4.1,29,0.00,,,0.00,tws,2013-10-16 04:10:00,
2013-10-15 21:20:00,64.9,32.8,29.99,NW,315,2.9,3.6,29,0.00,,,0.00,tws,2013-10-16 04:20:00,
2013-10-15 21:30:00,64.6,32.7,29.98,NW,315,2.5,3.2,30,0.00,,,0.00,tws,2013-10-16 04:30:00,
2013-10-15 21:40:00,64.2,32.6,29.99,NW,315,2.2,2.8,30,0.00,,,0.00,tws,2013-10-16 04:40:00,
2013-10-15 21:50:00,63.8,32.3,30.00,NW,315,2.6,3.8,30,0.00,,,0.00,tws,2013-10-16 04:50:00,
2013-10-15 22:00:00,63.4,31.8,30.00,NW,315,2.8,3.4,30,0.00,,,0.00,tws,2013-10-16 05:00:00,
2013-10-15 22:10:00,63.1,31.6,30.00,NW,315,2.9,4.3,30,0.00,,,0.00,tws,2013-10-16 05:10:00,
2013-10-15 22:20:00,62.9,32.0,30.00,NE,45,0.2,0.8,31,0.00,,,0.00,tws,2013-10-16 05:20:00,
2013-10-15 22:30:00,62.6,32.0,30.00,NW,315,0.8,1.9,31,0.00,,,0.00,tws,2013-10-16 05:30:00,
2013-10-15 22:40:00,62.3,32.2,30.00,SW,225,0.1,1.1,31,0.00,,,0.00,tws,2013-10-16 05:40:00,
2013-10-15 22:50:00,61.8,31.5,30.00,NW,315,2.4,3.7,31,0.00,,,0.00,tws,2013-10-16 05:50:00,
2013-10-15 23:00:00,61.2,31.5,30.00,SW,225,1.8,3.3,32,0.00,,,0.00,tws,2013-10-16 06:00:00,
2013-10-15 23:10:00,60.7,30.7,30.01,West,270,2.6,4.1,31,0.00,,,0.00,tws,2013-10-16 06:10:00,
2013-10-15 23:20:00,60.4,30.7,30.00,NW,315,2.8,3.6,32,0.00,,,0.00,tws,2013-10-16 06:20:00,
2013-10-15 23:30:00,60.2,30.6,30.00,SW,225,3.0,3.5,32,0.00,,,0.00,tws,2013-10-16 06:30:00,
2013-10-15 23:40:00,60.1,30.7,30.00,West,270,2.3,2.9,32,0.00,,,0.00,tws,2013-10-16 06:40:00,
2013-10-15 23:50:00,60.1,31.0,29.99,West,270,2.4,3.0,32,0.00,,,0.00,tws,2013-10-16 06:50:00,